Time;durP1;ratioP1;P1;durP2;ratioP2;P2;SDS_P1;SDS_P2;PMS_P1;PMS_P2;Temp;Humidity;BMP_temperature;BMP_pressure;BME280_temperature;BME280_humidity;BME280_pressure;Samples;Min_cycle;Max_cycle;Signal;HPM_P1;HPM_P2
2023/05/05 00:00:34;;;;;;;8.15;5.40;;;;;;;6.05;100.00;98693.91;4177746;28;20059;-71
2023/05/05 00:02:34;;;;;;;15.48;5.15;;;;;;;6.02;100.00;98686.34;4183328;28;20058;-71
2023/05/05 00:04:34;;;;;;;8.73;6.38;;;;;;;5.99;100.00;98686.25;4185021;28;20495;-71
2023/05/05 00:06:35;;;;;;;8.57;5.35;;;;;;;5.94;100.00;98679.00;4184841;28;20048;-71
2023/05/05 00:08:35;;;;;;;12.70;5.25;;;;;;;5.83;100.00;98675.09;4183988;28;20163;-71
2023/05/05 00:10:35;;;;;;;10.27;5.55;;;;;;;5.80;100.00;98686.78;4182162;28;20087;-71
2023/05/05 00:12:36;;;;;;;8.32;5.63;;;;;;;5.77;100.00;98680.00;4185344;28;20396;-71
2023/05/05 00:14:36;;;;;;;8.32;5.63;;;;;;;5.83;100.00;98678.63;4185091;28;20068;-71
2023/05/05 00:16:37;;;;;;;8.25;5.72;;;;;;;5.89;100.00;98679.22;4184061;28;20171;-71
2023/05/05 00:18:37;;;;;;;6.68;5.45;;;;;;;5.84;100.00;98677.50;4188633;28;20033;-71
2023/05/05 00:20:38;;;;;;;7.80;5.63;;;;;;;5.78;100.00;98683.53;4186565;28;20041;-71
2023/05/05 00:22:38;;;;;;;6.63;5.30;;;;;;;5.74;100.00;98677.94;4182180;28;20032;-71
2023/05/05 00:24:38;;;;;;;8.20;5.57;;;;;;;5.73;100.00;98673.59;4186506;28;20111;-71
2023/05/05 00:26:38;;;;;;;9.10;5.65;;;;;;;5.71;100.00;98669.56;4184772;28;20075;-71
2023/05/05 00:28:39;;;;;;;7.38;5.35;;;;;;;5.69;100.00;98672.66;4186077;28;20048;-71
2023/05/05 00:30:39;;;;;;;7.63;5.55;;;;;;;5.72;100.00;98679.44;4183978;28;20051;-71
2023/05/05 00:32:40;;;;;;;7.30;5.45;;;;;;;5.72;100.00;98677.50;4183395;28;20481;-71
2023/05/05 00:34:40;;;;;;;7.32;5.38;;;;;;;5.71;100.00;98675.06;4179758;28;20052;-71
2023/05/05 00:36:41;;;;;;;7.10;5.35;;;;;;;5.74;100.00;98682.63;4188221;28;20053;-71
2023/05/05 00:38:41;;;;;;;7.45;5.57;;;;;;;5.71;100.00;98677.81;4186890;28;20468;-71
2023/05/05 00:40:42;;;;;;;6.45;4.95;;;;;;;5.66;100.00;98675.31;4184866;28;20510;-71
2023/05/05 00:42:47;;;;;;;9.65;5.95;;;;;;;5.61;100.00;98676.31;4182356;28;20648;-71
2023/05/05 00:44:47;;;;;;;7.43;5.50;;;;;;;5.60;100.00;98667.28;4179744;28;20052;-71
2023/05/05 00:46:47;;;;;;;7.78;5.20;;;;;;;5.62;100.00;98664.19;4181393;28;20037;-71
2023/05/05 00:48:48;;;;;;;8.02;5.05;;;;;;;5.57;100.00;98658.94;4186470;28;20040;-71
2023/05/05 00:50:48;;;;;;;8.52;5.53;;;;;;;5.54;100.00;98660.41;4184047;28;20337;-71
2023/05/05 00:52:50;;;;;;;11.13;5.68;;;;;;;5.51;100.00;98668.53;4184139;28;20136;-71
2023/05/05 00:54:51;;;;;;;10.73;6.07;;;;;;;5.50;100.00;98658.69;4186279;28;20044;-71
2023/05/05 00:56:52;;;;;;;7.15;5.22;;;;;;;5.57;100.00;98662.47;4180759;28;20059;-71
2023/05/05 00:58:52;;;;;;;8.10;5.45;;;;;;;5.63;100.00;98660.31;4188567;28;20052;-71
2023/05/05 01:00:52;;;;;;;11.70;6.47;;;;;;;5.60;100.00;98663.72;4187686;28;20028;-71
2023/05/05 01:02:53;;;;;;;7.72;5.95;;;;;;;5.48;100.00;98660.97;4184926;28;20070;-71
2023/05/05 01:04:54;;;;;;;8.23;6.18;;;;;;;5.40;100.00;98654.44;4184116;28;20056;-71
2023/05/05 01:07:33;;;;;;;8.50;5.32;;;;;;;5.43;100.00;98650.22;4184283;28;20041;-71
2023/05/05 01:09:43;;;;;;;11.68;6.10;;;;;;;5.43;100.00;98661.97;4187370;28;20049;-71
2023/05/05 01:12:14;;;;;;;8.40;5.72;;;;;;;5.34;100.00;98653.03;4183096;28;20040;-71
2023/05/05 01:14:21;;;;;;;12.00;5.97;;;;;;;5.20;100.00;98645.09;4186808;28;20382;-71
2023/05/05 01:16:28;;;;;;;8.85;5.90;;;;;;;5.19;100.00;98646.25;4183779;28;20178;-71
2023/05/05 01:18:41;;;;;;;8.23;5.90;;;;;;;5.09;100.00;98635.72;4179381;28;20056;-71
2023/05/05 01:20:42;;;;;;;7.32;5.80;;;;;;;5.00;100.00;98646.78;4184201;28;20047;-71
2023/05/05 01:22:46;;;;;;;7.07;5.40;;;;;;;4.92;100.00;98633.13;4181348;28;20049;-71
2023/05/05 01:25:08;;;;;;;10.68;6.18;;;;;;;4.90;100.00;98638.16;4183369;28;20045;-71
2023/05/05 01:27:24;;;;;;;9.25;5.32;;;;;;;5.00;100.00;98633.06;4183505;28;20067;-71
2023/05/05 01:30:00;;;;;;;7.45;5.30;;;;;;;5.05;100.00;98632.06;4184958;28;20451;-71
2023/05/05 01:32:13;;;;;;;12.73;6.25;;;;;;;4.97;100.00;98621.97;4184823;28;20064;-72
2023/05/05 01:34:18;;;;;;;7.25;5.35;;;;;;;4.99;100.00;98625.97;4181700;28;20112;-71
2023/05/05 01:36:41;;;;;;;6.50;5.10;;;;;;;4.99;100.00;98620.50;4183952;28;20044;-71
2023/05/05 01:38:44;;;;;;;7.95;6.10;;;;;;;4.96;100.00;98631.31;4178509;28;20057;-71
2023/05/05 01:40:50;;;;;;;11.48;5.95;;;;;;;4.85;100.00;98625.44;4183301;28;20045;-71
2023/05/05 01:42:53;;;;;;;7.68;5.50;;;;;;;4.86;100.00;98616.09;4184862;28;20086;-71
2023/05/05 01:44:55;;;;;;;10.38;5.95;;;;;;;4.86;100.00;98634.47;4183235;28;20497;-71
2023/05/05 01:46:57;;;;;;;8.15;6.20;;;;;;;4.88;100.00;98621.22;4184390;28;20037;-71
2023/05/05 01:48:58;;;;;;;8.93;6.20;;;;;;;4.86;100.00;98629.78;4182281;28;20040;-71
2023/05/05 01:51:01;;;;;;;10.63;6.32;;;;;;;4.90;100.00;98617.03;4180919;28;20156;-70
2023/05/05 01:53:04;;;;;;;7.72;5.72;;;;;;;4.90;100.00;98628.00;4182665;28;20093;-70
2023/05/05 01:55:06;;;;;;;7.68;5.22;;;;;;;4.83;100.00;98624.19;4182767;28;20079;-71
2023/05/05 01:57:08;;;;;;;8.68;6.28;;;;;;;4.87;100.00;98627.84;4180866;28;20055;-71
2023/05/05 01:59:10;;;;;;;8.18;5.70;;;;;;;4.88;100.00;98615.75;4184578;28;20097;-71
2023/05/05 02:01:12;;;;;;;10.05;6.03;;;;;;;4.90;100.00;98619.78;4183860;28;20086;-71
2023/05/05 02:03:14;;;;;;;7.57;5.63;;;;;;;4.92;100.00;98619.44;4179292;28;20187;-71
2023/05/05 02:05:18;;;;;;;8.32;6.07;;;;;;;4.88;100.00;98618.50;4185698;28;20608;-70
2023/05/05 02:07:19;;;;;;;9.50;5.57;;;;;;;4.88;100.00;98615.75;4179678;28;20041;-70
2023/05/05 02:09:20;;;;;;;8.10;5.60;;;;;;;4.83;100.00;98619.50;4182719;28;20491;-70
2023/05/05 02:11:20;;;;;;;7.82;5.18;;;;;;;4.82;100.00;98625.34;4186079;28;20385;-70
2023/05/05 02:13:23;;;;;;;8.02;5.28;;;;;;;4.76;100.00;98622.00;4181603;28;20056;-70
2023/05/05 02:15:24;;;;;;;11.75;5.47;;;;;;;4.75;100.00;98626.69;4182653;28;20048;-70
2023/05/05 02:17:26;;;;;;;7.85;5.07;;;;;;;4.74;100.00;98621.53;4183649;28;20040;-71
2023/05/05 02:19:29;;;;;;;7.57;5.15;;;;;;;4.72;100.00;98621.88;4184142;28;20051;-71
2023/05/05 02:21:30;;;;;;;12.07;5.93;;;;;;;4.73;100.00;98618.00;4182566;28;20061;-70
2023/05/05 02:23:31;;;;;;;10.07;6.00;;;;;;;4.75;100.00;98612.97;4181875;28;20045;-70
2023/05/05 02:25:38;;;;;;;9.50;5.97;;;;;;;4.76;100.00;98622.78;4181020;28;20482;-71
2023/05/05 02:27:41;;;;;;;8.45;6.20;;;;;;;4.80;100.00;98625.69;4182948;28;20072;-71
2023/05/05 02:29:55;;;;;;;6.72;5.45;;;;;;;4.82;100.00;98622.59;4183678;28;20041;-70
2023/05/05 02:32:05;;;;;;;8.65;5.90;;;;;;;4.88;100.00;98615.75;4184402;28;20331;-70
2023/05/05 02:34:06;;;;;;;11.13;6.45;;;;;;;4.85;100.00;98616.44;4180655;28;20420;-71
2023/05/05 02:36:22;;;;;;;7.30;6.03;;;;;;;4.89;100.00;98603.66;4182641;28;20484;-71
2023/05/05 02:38:26;;;;;;;9.43;6.28;;;;;;;4.89;100.00;98606.41;4176647;28;20052;-71
2023/05/05 02:40:29;;;;;;;8.85;6.03;;;;;;;4.88;100.00;98615.75;4185575;28;20044;-71
2023/05/05 02:42:36;;;;;;;8.93;5.78;;;;;;;4.94;100.00;98608.91;4181684;28;20036;-71
2023/05/05 02:44:40;;;;;;;9.77;5.95;;;;;;;4.94;100.00;98601.50;4183183;28;20401;-71
2023/05/05 02:46:41;;;;;;;8.15;5.85;;;;;;;4.93;100.00;98605.38;4183990;28;20041;-71
2023/05/05 02:48:42;;;;;;;9.70;6.18;;;;;;;4.87;100.00;98612.19;4180204;28;20049;-71
2023/05/05 02:50:42;;;;;;;8.63;5.82;;;;;;;4.81;100.00;98608.09;4183438;28;20491;-71
2023/05/05 02:52:43;;;;;;;8.55;5.80;;;;;;;4.72;100.00;98610.09;4181571;28;20041;-71
2023/05/05 02:54:44;;;;;;;10.63;6.53;;;;;;;4.65;100.00;98615.31;4178077;28;20554;-71
2023/05/05 02:56:50;;;;;;;7.57;5.50;;;;;;;4.59;100.00;98608.44;4181896;28;20044;-71
2023/05/05 02:58:57;;;;;;;11.38;5.65;;;;;;;4.55;100.00;98610.22;4183412;28;20079;-70
2023/05/05 03:01:06;;;;;;;8.43;6.00;;;;;;;4.53;100.00;98615.25;4180421;28;20052;-70
2023/05/05 03:03:20;;;;;;;8.02;5.68;;;;;;;4.47;100.00;98607.25;4177746;28;20049;-70
2023/05/05 03:05:30;;;;;;;9.27;6.28;;;;;;;4.47;100.00;98606.44;4179431;28;20060;-70
2023/05/05 03:07:36;;;;;;;10.02;5.93;;;;;;;4.44;100.00;98605.16;4182397;28;20041;-70
2023/05/05 03:09:42;;;;;;;8.07;5.97;;;;;;;4.40;100.00;98603.44;4183962;28;20044;-70
2023/05/05 03:11:48;;;;;;;9.85;6.20;;;;;;;4.32;100.00;98599.63;4179411;28;20047;-70
2023/05/05 03:13:52;;;;;;;13.27;6.90;;;;;;;4.23;100.00;98609.84;4178328;28;20582;-71
2023/05/05 03:15:55;;;;;;;11.48;7.28;;;;;;;4.21;100.00;98606.63;4177985;28;20622;-70
2023/05/05 03:17:57;;;;;;;9.75;6.65;;;;;;;4.16;100.00;98612.31;4181981;28;20044;-70
2023/05/05 03:19:58;;;;;;;14.85;7.53;;;;;;;4.08;100.00;98604.94;4178061;28;20036;-70
2023/05/05 03:22:01;;;;;;;9.52;6.63;;;;;;;4.06;100.00;98599.81;4177475;28;20121;-70
2023/05/05 03:24:15;;;;;;;16.85;7.13;;;;;;;4.04;100.00;98606.72;4181726;28;20094;-71
2023/05/05 03:26:17;;;;;;;9.90;6.85;;;;;;;4.03;100.00;98602.41;4179979;28;20036;-71
2023/05/05 03:28:17;;;;;;;11.85;6.68;;;;;;;3.97;100.00;98599.03;4180777;28;20360;-71
2023/05/05 03:30:19;;;;;;;10.85;7.15;;;;;;;3.98;100.00;98597.13;4181716;28;20043;-71
2023/05/05 03:32:19;;;;;;;10.02;6.70;;;;;;;3.97;100.00;98595.50;4179400;28;20029;-71
2023/05/05 03:34:20;;;;;;;8.65;6.57;;;;;;;3.97;100.00;98600.97;4181619;28;20376;-70
2023/05/05 03:36:20;;;;;;;13.45;6.82;;;;;;;3.96;100.00;98600.19;4182880;28;20186;-71
2023/05/05 03:38:20;;;;;;;10.63;7.35;;;;;;;3.91;100.00;98590.22;4179453;28;20087;-70
2023/05/05 03:40:23;;;;;;;12.20;6.80;;;;;;;3.94;100.00;98595.03;4183800;28;20084;-71
2023/05/05 03:42:24;;;;;;;11.13;6.70;;;;;;;3.93;100.00;98598.91;4182840;28;20040;-71
2023/05/05 03:44:24;;;;;;;11.65;7.00;;;;;;;3.92;100.00;98593.78;4181050;28;20064;-70
2023/05/05 03:46:24;;;;;;;10.82;6.65;;;;;;;3.92;100.00;98605.53;4183319;28;20045;-70
2023/05/05 03:48:25;;;;;;;13.35;7.72;;;;;;;3.90;100.00;98599.59;4180506;28;20138;-70
2023/05/05 03:50:25;;;;;;;13.75;8.13;;;;;;;3.98;100.00;98597.13;4180690;28;20052;-70
2023/05/05 03:52:25;;;;;;;13.63;8.43;;;;;;;3.94;100.00;98597.78;4181926;28;20140;-71
2023/05/05 03:54:26;;;;;;;9.07;6.95;;;;;;;3.94;100.00;98595.03;4182602;28;20040;-70
2023/05/05 03:56:26;;;;;;;10.75;7.68;;;;;;;4.00;100.00;98597.59;4182028;28;20036;-70
2023/05/05 03:58:26;;;;;;;8.88;6.43;;;;;;;3.95;100.00;98593.91;4183193;28;20477;-70
2023/05/05 04:00:27;;;;;;;14.77;7.00;;;;;;;3.99;100.00;98587.78;4181094;28;20104;-70
2023/05/05 04:02:27;;;;;;;13.63;6.75;;;;;;;3.98;100.00;98591.66;4185651;28;20457;-70
2023/05/05 04:04:27;;;;;;;10.63;7.82;;;;;;;4.03;100.00;98603.19;4181004;28;20064;-70
2023/05/05 04:06:28;;;;;;;10.95;7.55;;;;;;;4.07;100.00;98611.56;4182919;28;20171;-70
2023/05/05 04:08:28;;;;;;;11.15;7.82;;;;;;;4.10;100.00;98608.16;4182931;28;20064;-70
2023/05/05 04:10:29;;;;;;;15.55;7.72;;;;;;;4.20;100.00;98616.78;4182143;28;20066;-70
2023/05/05 04:12:29;;;;;;;11.95;6.80;;;;;;;4.32;100.00;98596.09;4179756;28;20116;-70
2023/05/05 04:14:30;;;;;;;10.73;7.03;;;;;;;4.39;100.00;98593.63;4179728;28;20849;-70
2023/05/05 04:16:30;;;;;;;10.35;6.80;;;;;;;4.46;100.00;98594.66;4182224;28;20072;-70
2023/05/05 04:18:30;;;;;;;11.07;7.30;;;;;;;4.46;100.00;98589.19;4181297;28;20072;-70
2023/05/05 04:20:33;;;;;;;12.70;8.60;;;;;;;4.47;100.00;98588.06;4185279;28;20080;-70
2023/05/05 04:22:34;;;;;;;13.35;7.40;;;;;;;4.49;100.00;98579.50;4185619;28;20036;-71
2023/05/05 04:24:34;;;;;;;15.90;7.65;;;;;;;4.47;100.00;98579.84;4179814;28;20049;-70
2023/05/05 04:26:34;;;;;;;10.07;7.15;;;;;;;4.52;100.00;98578.84;4180880;28;20063;-70
2023/05/05 04:28:35;;;;;;;11.57;6.82;;;;;;;4.52;100.00;98578.84;4180877;28;20041;-70
2023/05/05 04:30:35;;;;;;;11.32;7.75;;;;;;;4.53;100.00;98601.56;4180309;28;20121;-71
2023/05/05 04:32:35;;;;;;;12.70;7.40;;;;;;;4.52;100.00;98608.97;4178995;28;20550;-70
2023/05/05 04:34:36;;;;;;;11.15;7.93;;;;;;;4.60;100.00;98599.06;4181787;28;20371;-70
2023/05/05 04:36:36;;;;;;;11.23;7.28;;;;;;;4.65;100.00;98596.16;4180411;28;20636;-70
2023/05/05 04:38:36;;;;;;;15.82;8.80;;;;;;;4.71;100.00;98598.31;4180436;28;20134;-70
2023/05/05 04:40:39;;;;;;;12.27;7.55;;;;;;;4.78;100.00;98593.09;4180418;28;20116;-70
2023/05/05 04:42:39;;;;;;;13.60;7.00;;;;;;;4.77;100.00;98587.97;4178922;28;20055;-70
2023/05/05 04:44:40;;;;;;;11.50;6.50;;;;;;;4.80;100.00;98576.34;4180589;28;20065;-70
2023/05/05 04:46:40;;;;;;;12.82;6.50;;;;;;;4.82;100.00;98582.28;4182408;28;20044;-71
2023/05/05 04:48:41;;;;;;;9.43;7.18;;;;;;;4.82;100.00;98587.75;4180968;28;20123;-70
2023/05/05 04:50:41;;;;;;;9.50;7.13;;;;;;;4.84;100.00;98596.44;4180770;28;20420;-70
2023/05/05 04:52:41;;;;;;;12.88;6.68;;;;;;;4.84;100.00;98606.59;4180142;28;20432;-70
2023/05/05 04:54:41;;;;;;;14.05;7.88;;;;;;;4.88;100.00;98605.59;4181661;28;20084;-70
2023/05/05 04:56:42;;;;;;;14.90;7.65;;;;;;;4.91;100.00;98607.66;4180732;28;20139;-70
2023/05/05 04:58:42;;;;;;;13.43;8.55;;;;;;;4.93;100.00;98602.63;4183972;28;20037;-70
2023/05/05 05:00:42;;;;;;;10.60;7.63;;;;;;;5.00;100.00;98602.91;4181517;28;20524;-70
2023/05/05 05:02:43;;;;;;;11.05;6.68;;;;;;;5.06;100.00;98601.53;4184805;28;20041;-70
2023/05/05 05:04:43;;;;;;;11.63;7.68;;;;;;;5.12;100.00;98609.53;4183205;28;20055;-70
2023/05/05 05:06:44;;;;;;;9.85;6.38;;;;;;;5.19;100.00;98602.38;4187555;28;20068;-70
2023/05/05 05:08:45;;;;;;;10.63;7.20;;;;;;;5.36;100.00;98607.66;4179191;28;20033;-70
2023/05/05 05:10:45;;;;;;;13.15;7.60;;;;;;;5.50;100.00;98610.09;4179085;28;20109;-71
2023/05/05 05:12:48;;;;;;;10.77;7.18;;;;;;;5.63;100.00;98613.66;4179546;28;20052;-70
2023/05/05 05:14:48;;;;;;;11.98;6.88;;;;;;;5.71;100.00;98601.78;4184136;28;20313;-70
2023/05/05 05:16:51;;;;;;;11.32;7.25;;;;;;;5.80;100.00;98607.16;4186219;28;20044;-71
2023/05/05 05:18:51;;;;;;;12.88;7.53;;;;;;;5.86;100.00;98608.50;4183918;28;20437;-70
2023/05/05 05:20:51;;;;;;;12.63;7.20;;;;;;;5.88;100.00;98617.22;4183087;28;20073;-71
2023/05/05 05:22:51;;;;;;;13.10;7.43;;;;;;;5.89;100.00;98602.34;4186046;28;20054;-70
2023/05/05 05:24:52;;;;;;;10.68;7.20;;;;;;;5.94;100.00;98604.06;4185619;28;20224;-71
2023/05/05 05:26:52;;;;;;;11.48;7.20;;;;;;;6.00;100.00;98606.25;4184633;28;20745;-71
2023/05/05 05:28:53;;;;;;;13.02;8.40;;;;;;;6.09;100.00;98606.91;4123051;27;20079;-70
2023/05/05 05:30:53;;;;;;;16.73;9.65;;;;;;;6.11;100.00;98606.56;4186238;28;20110;-70
2023/05/05 05:32:53;;;;;;;11.40;7.90;;;;;;;6.13;100.00;98604.28;4181021;28;20114;-70
2023/05/05 05:34:54;;;;;;;11.88;7.30;;;;;;;6.20;100.00;98610.78;4180669;28;20125;-71
2023/05/05 05:36:54;;;;;;;11.02;7.10;;;;;;;6.24;100.00;98605.41;4182416;28;20135;-71
2023/05/05 05:38:55;;;;;;;11.93;8.20;;;;;;;6.40;100.00;98617.28;4182815;28;20071;-71
2023/05/05 05:40:55;;;;;;;9.13;6.75;;;;;;;6.55;100.00;98618.53;4182331;28;20513;-70
2023/05/05 05:42:55;;;;;;;14.27;7.88;;;;;;;6.66;100.00;98610.56;4180206;28;20094;-70
2023/05/05 05:44:57;;;;;;;11.02;7.40;;;;;;;6.81;100.00;98614.53;4182158;28;20141;-70
2023/05/05 05:46:57;;;;;;;13.05;7.63;;;;;;;6.93;100.00;98608.97;4179775;28;20121;-70
2023/05/05 05:48:58;;;;;;;10.80;7.13;;;;;;;7.06;100.00;98612.47;4182817;28;20053;-70
2023/05/05 05:50:58;;;;;;;10.23;7.22;;;;;;;7.16;100.00;98598.22;4182410;28;20076;-70
2023/05/05 05:52:58;;;;;;;9.70;6.85;;;;;;;7.24;100.00;98606.31;4179705;28;20045;-70
2023/05/05 05:54:59;;;;;;;10.80;6.15;;;;;;;7.36;100.00;98604.63;4178728;28;20044;-70
2023/05/05 05:56:59;;;;;;;10.43;6.60;;;;;;;7.40;100.00;98605.53;4176495;28;20271;-71
2023/05/05 05:59:00;;;;;;;8.82;6.00;;;;;;;7.48;100.00;98610.84;4181512;28;20076;-70
2023/05/05 06:01:02;;;;;;;10.18;6.28;;;;;;;7.58;100.00;98604.03;4183956;28;20384;-70
2023/05/05 06:03:03;;;;;;;9.52;6.20;;;;;;;7.69;100.00;98601.53;4180354;28;20045;-70
2023/05/05 06:05:03;;;;;;;9.57;6.65;;;;;;;7.82;100.00;98603.84;4184719;28;20211;-70
2023/05/05 06:07:04;;;;;;;8.73;5.93;;;;;;;7.93;100.00;98615.09;4186473;28;20338;-70
2023/05/05 06:09:04;;;;;;;16.98;6.88;;;;;;;8.02;100.00;98607.44;4185546;28;20045;-70
2023/05/05 06:11:05;;;;;;;15.82;6.18;;;;;;;8.14;100.00;98606.56;4182336;28;20504;-70
2023/05/05 06:13:05;;;;;;;8.85;6.25;;;;;;;8.29;100.00;98610.44;4179312;28;20052;-71
2023/05/05 06:15:06;;;;;;;9.40;6.80;;;;;;;8.37;100.00;98613.03;4182352;28;20045;-71
2023/05/05 06:17:06;;;;;;;9.68;6.20;;;;;;;8.51;100.00;98609.75;4182837;28;20045;-71
2023/05/05 06:19:08;;;;;;;13.40;7.13;;;;;;;8.64;100.00;98607.69;4188721;28;20075;-71
2023/05/05 06:21:08;;;;;;;10.23;5.55;;;;;;;8.76;100.00;98606.72;4185073;28;20052;-71
2023/05/05 06:23:09;;;;;;;13.48;6.72;;;;;;;8.86;100.00;98601.47;4183269;28;20291;-70
2023/05/05 06:25:10;;;;;;;7.75;5.90;;;;;;;8.94;100.00;98603.19;4181903;28;20119;-71
2023/05/05 06:27:10;;;;;;;9.27;5.97;;;;;;;9.06;100.00;98605.00;4183378;28;20088;-71
2023/05/05 06:29:11;;;;;;;7.30;5.47;;;;;;;9.12;100.00;98603.53;4181062;28;20071;-71
2023/05/05 06:31:13;;;;;;;7.75;5.80;;;;;;;9.20;100.00;98601.72;4184530;28;20047;-71
2023/05/05 06:33:13;;;;;;;8.52;5.47;;;;;;;9.34;100.00;98601.97;4182983;28;20406;-71
2023/05/05 06:35:13;;;;;;;9.60;6.05;;;;;;;9.47;100.00;98602.59;4181256;28;20087;-71
2023/05/05 06:37:14;;;;;;;7.50;5.93;;;;;;;9.55;100.00;98607.06;4182414;28;20440;-71
2023/05/05 06:39:14;;;;;;;11.85;6.13;;;;;;;9.66;100.00;98610.00;4178455;28;20041;-71
2023/05/05 06:41:14;;;;;;;11.88;6.45;;;;;;;9.75;100.00;98608.59;4185647;28;20037;-71
2023/05/05 06:43:15;;;;;;;13.05;5.90;;;;;;;9.82;100.00;98605.16;4180440;28;20048;-71
2023/05/05 06:45:16;;;;;;;10.55;6.28;;;;;;;9.93;100.00;98608.09;4183510;28;20380;-71
2023/05/05 06:47:16;;;;;;;9.27;5.65;;;;;;;10.00;100.00;98608.19;4184778;28;20063;-71
2023/05/05 06:49:16;;;;;;;8.88;5.55;;;;;;;10.10;100.00;98605.63;4180630;28;20048;-71
2023/05/05 06:51:17;;;;;;;8.75;5.10;;;;;;;10.22;100.00;98607.41;4182852;28;20119;-71
2023/05/05 06:53:17;;;;;;;12.98;6.00;;;;;;;10.40;100.00;98611.22;4182264;28;20048;-71
2023/05/05 06:55:18;;;;;;;9.98;5.57;;;;;;;10.58;100.00;98603.16;4177950;28;20178;-71
2023/05/05 06:57:18;;;;;;;7.78;5.18;;;;;;;10.67;99.79;98603.69;4183610;28;20052;-71
2023/05/05 06:59:18;;;;;;;7.97;5.28;;;;;;;10.79;98.79;98601.84;4176297;28;20292;-71
2023/05/05 07:01:19;;;;;;;7.82;5.30;;;;;;;10.98;98.37;98601.69;4181143;28;20040;-71
2023/05/05 07:03:19;;;;;;;8.95;5.60;;;;;;;11.16;98.18;98597.13;4186279;28;20081;-71
2023/05/05 07:05:19;;;;;;;9.32;4.90;;;;;;;11.44;98.98;98604.97;4180069;28;20442;-71
2023/05/05 07:07:20;;;;;;;8.98;4.90;;;;;;;11.73;95.93;98600.47;4182338;28;20033;-71
2023/05/05 07:09:20;;;;;;;7.80;5.07;;;;;;;11.96;95.17;98605.06;4176242;28;20713;-71
2023/05/05 07:11:21;;;;;;;9.93;5.35;;;;;;;12.16;96.95;98616.69;4183268;28;20141;-71
2023/05/05 07:13:21;;;;;;;10.80;4.47;;;;;;;12.29;95.56;98627.09;4181323;28;20055;-71
2023/05/05 07:15:22;;;;;;;5.75;4.30;;;;;;;12.41;93.12;98620.44;4181776;28;20512;-71
2023/05/05 07:17:22;;;;;;;7.18;4.53;;;;;;;12.43;94.59;98615.31;4183059;28;20094;-71
2023/05/05 07:19:22;;;;;;;10.90;5.60;;;;;;;12.53;93.36;98611.78;4183157;28;20049;-71
2023/05/05 07:21:23;;;;;;;10.32;4.80;;;;;;;12.84;92.66;98615.94;4182990;28;20045;-71
2023/05/05 07:23:23;;;;;;;7.43;4.85;;;;;;;13.11;90.70;98619.22;4181184;28;20069;-71
2023/05/05 07:25:23;;;;;;;9.48;4.65;;;;;;;13.10;89.05;98606.50;4182335;28;20075;-71
2023/05/05 07:27:24;;;;;;;9.30;5.18;;;;;;;13.20;90.62;98603.00;4178618;28;20040;-71
2023/05/05 07:29:24;;;;;;;6.40;4.82;;;;;;;13.36;89.25;98610.97;4181158;28;20052;-71
2023/05/05 07:31:25;;;;;;;9.25;4.55;;;;;;;13.55;87.85;98609.03;4186389;28;20468;-71
2023/05/05 07:33:26;;;;;;;8.00;4.45;;;;;;;13.62;87.39;98609.03;4181292;28;20079;-71
2023/05/05 07:35:27;;;;;;;15.57;13.70;;;;;;;13.68;90.84;98611.03;4182298;28;20040;-71
2023/05/05 07:37:27;;;;;;;7.88;4.85;;;;;;;13.74;91.30;98595.56;4181485;28;20041;-71
2023/05/05 07:39:27;;;;;;;8.57;4.72;;;;;;;13.74;91.25;98595.56;4182665;28;20147;-71
2023/05/05 07:41:27;;;;;;;8.70;4.22;;;;;;;13.80;88.73;98593.16;4179897;28;20052;-71
2023/05/05 07:43:28;;;;;;;9.65;4.80;;;;;;;13.85;89.51;98587.22;4184499;28;20052;-71
2023/05/05 07:45:28;;;;;;;8.68;4.57;;;;;;;13.91;90.74;98593.19;4182536;28;20048;-71
2023/05/05 07:47:29;;;;;;;4.40;3.50;;;;;;;13.96;90.28;98593.56;4177378;28;20040;-71
2023/05/05 07:49:29;;;;;;;5.03;3.92;;;;;;;14.03;86.51;98592.75;4178491;28;20056;-71
2023/05/05 07:51:30;;;;;;;7.47;3.90;;;;;;;14.15;87.14;98589.59;4183721;28;20102;-71
2023/05/05 07:53:31;;;;;;;7.00;3.70;;;;;;;14.30;86.63;98593.13;4181292;28;20129;-71
2023/05/05 07:55:31;;;;;;;4.75;3.78;;;;;;;14.40;87.17;98586.78;4183831;28;20057;-71
2023/05/05 07:57:32;;;;;;;5.72;3.58;;;;;;;14.53;89.20;98595.50;4187168;28;20043;-71
2023/05/05 07:59:33;;;;;;;5.72;3.70;;;;;;;14.65;90.65;98597.06;4190830;28;20045;-71
2023/05/05 08:01:33;;;;;;;6.03;3.75;;;;;;;14.73;87.73;98591.09;4184613;28;20049;-71
2023/05/05 08:03:34;;;;;;;7.22;3.75;;;;;;;14.83;84.79;98586.66;4177327;28;20532;-71
2023/05/05 08:05:34;;;;;;;6.82;3.80;;;;;;;14.95;83.89;98585.41;4182530;28;20090;-72
2023/05/05 08:07:39;;;;;;;5.80;3.83;;;;;;;15.03;83.84;98589.75;4182620;28;20048;-71
2023/05/05 08:09:40;;;;;;;5.75;3.63;;;;;;;15.15;82.09;98587.31;4180447;28;20037;-72
2023/05/05 08:11:40;;;;;;;7.32;4.03;;;;;;;15.28;85.62;98584.84;4181242;28;20051;-72
2023/05/05 08:13:41;;;;;;;7.30;3.80;;;;;;;15.46;86.13;98582.75;4182064;28;20419;-72
2023/05/05 08:15:43;;;;;;;4.65;3.88;;;;;;;15.59;84.81;98577.50;4178077;28;20603;-72
2023/05/05 08:17:49;;;;;;;10.40;3.45;;;;;;;15.67;81.26;98572.69;4181596;28;20392;-72
2023/05/05 08:19:50;;;;;;;5.70;3.30;;;;;;;15.69;80.75;98573.06;4181432;28;20400;-72
2023/05/05 08:21:51;;;;;;;7.07;4.13;;;;;;;15.70;80.19;98564.28;4187488;28;20033;-72
2023/05/05 08:23:51;;;;;;;7.00;3.70;;;;;;;15.79;81.36;98568.59;4182539;28;20128;-72
2023/05/05 08:25:51;;;;;;;5.95;3.30;;;;;;;15.85;79.70;98562.19;4184602;28;20148;-72
2023/05/05 08:27:52;;;;;;;6.47;3.53;;;;;;;15.94;80.89;98565.28;4185691;28;20048;-72
2023/05/05 08:29:52;;;;;;;4.93;3.28;;;;;;;15.98;82.91;98568.06;4186004;28;20036;-72
2023/05/05 08:31:53;;;;;;;10.95;4.05;;;;;;;16.04;82.38;98568.38;4183080;28;20075;-72
2023/05/05 08:33:54;;;;;;;10.70;3.30;;;;;;;16.15;82.36;98569.91;4184121;28;20528;-72
2023/05/05 08:35:54;;;;;;;5.28;3.30;;;;;;;16.33;77.39;98577.31;4182553;28;20060;-72
2023/05/05 08:37:54;;;;;;;5.82;3.70;;;;;;;16.40;76.39;98572.44;4184672;28;20047;-72
2023/05/05 08:39:56;;;;;;;4.53;2.83;;;;;;;16.54;76.37;98574.28;4184721;28;20049;-72
2023/05/05 08:41:56;;;;;;;4.75;3.22;;;;;;;16.66;73.59;98576.53;4181395;28;20072;-72
2023/05/05 08:43:57;;;;;;;7.32;3.53;;;;;;;16.82;71.36;98565.59;4179198;28;20068;-72
2023/05/05 08:45:58;;;;;;;5.38;3.17;;;;;;;16.92;71.21;98575.06;4185617;28;20045;-72
2023/05/05 08:48:03;;;;;;;7.90;3.60;;;;;;;16.99;70.72;98574.19;4183929;28;20484;-72
2023/05/05 08:50:04;;;;;;;8.20;3.40;;;;;;;17.18;73.92;98578.31;4183786;28;20504;-72
2023/05/05 08:52:10;;;;;;;5.97;2.90;;;;;;;17.38;76.11;98577.25;4183643;28;20067;-72
2023/05/05 08:54:18;;;;;;;5.63;2.75;;;;;;;17.48;74.75;98571.94;4183848;28;20032;-72
2023/05/05 08:56:20;;;;;;;4.57;2.90;;;;;;;17.65;72.75;98562.47;4181146;28;20028;-72
2023/05/05 08:58:22;;;;;;;3.28;2.90;;;;;;;17.87;75.97;98562.94;4185650;28;20052;-72
2023/05/05 09:00:25;;;;;;;4.43;2.90;;;;;;;17.93;74.11;98570.44;4183402;28;20039;-72
2023/05/05 09:02:28;;;;;;;5.13;2.95;;;;;;;17.95;74.60;98572.78;4187365;28;20091;-72
2023/05/05 09:04:29;;;;;;;7.18;3.25;;;;;;;17.87;71.55;98560.94;4187172;28;20075;-72
2023/05/05 09:06:32;;;;;;;5.60;2.90;;;;;;;17.84;72.20;98561.00;4180455;28;20045;-72
2023/05/05 09:08:32;;;;;;;6.60;3.60;;;;;;;17.88;72.96;98558.94;4183669;28;20036;-72
2023/05/05 09:10:35;;;;;;;4.00;3.20;;;;;;;17.88;73.37;98559.72;4183666;28;20039;-72
2023/05/05 09:12:40;;;;;;;5.15;3.42;;;;;;;17.90;73.51;98564.91;4180573;28;20051;-72
2023/05/05 09:14:40;;;;;;;4.35;3.25;;;;;;;17.90;72.01;98557.28;4184737;28;20122;-72
2023/05/05 09:16:42;;;;;;;3.92;2.92;;;;;;;17.92;71.58;98563.25;4181889;28;20147;-72
2023/05/05 09:18:44;;;;;;;;;;;;;;;18.08;70.58;98559.00;4187333;28;20036;-72
2023/05/05 09:20:44;;;;;;;7.85;3.92;;;;;;;18.12;70.25;98557.72;4180406;28;20319;-72
2023/05/05 09:22:46;;;;;;;4.47;2.88;;;;;;;18.15;71.08;98564.47;4183990;28;20074;-72
2023/05/05 09:24:54;;;;;;;4.85;3.50;;;;;;;18.15;72.15;98570.06;4186658;28;20127;-72
2023/05/05 09:26:54;;;;;;;6.80;3.70;;;;;;;18.22;70.46;98569.94;4182559;28;20453;-72
2023/05/05 09:28:56;;;;;;;6.43;3.65;;;;;;;18.23;71.97;98572.31;4179652;28;20041;-72
2023/05/05 09:31:11;;;;;;;4.30;3.40;;;;;;;18.27;70.73;98558.25;4179765;28;20045;-72